sensor_id;sensor_type;location;lat;lon;timestamp;P1;durP1;ratioP1;P2;durP2;ratioP2
43650;SDS011;29247;50.944;5.382;2023-04-03T00:01:44;6.32;;;2.65;;
43650;SDS011;29247;50.944;5.382;2023-04-03T00:04:10;5.40;;;2.63;;
43650;SDS011;29247;50.944;5.382;2023-04-03T00:06:36;5.72;;;2.50;;
43650;SDS011;29247;50.944;5.382;2023-04-03T00:09:04;4.35;;;2.70;;
43650;SDS011;29247;50.944;5.382;2023-04-03T00:11:30;4.28;;;2.65;;
43650;SDS011;29247;50.944;5.382;2023-04-03T00:13:58;2.50;;;2.20;;
43650;SDS011;29247;50.944;5.382;2023-04-03T00:16:24;3.55;;;2.63;;
43650;SDS011;29247;50.944;5.382;2023-04-03T00:18:50;3.53;;;2.42;;
43650;SDS011;29247;50.944;5.382;2023-04-03T00:21:18;3.40;;;2.78;;
43650;SDS011;29247;50.944;5.382;2023-04-03T00:23:44;5.65;;;3.17;;
43650;SDS011;29247;50.944;5.382;2023-04-03T00:26:10;3.90;;;3.50;;
43650;SDS011;29247;50.944;5.382;2023-04-03T00:28:38;3.70;;;2.85;;
43650;SDS011;29247;50.944;5.382;2023-04-03T00:31:03;2.65;;;2.30;;
43650;SDS011;29247;50.944;5.382;2023-04-03T00:33:31;3.90;;;3.00;;
43650;SDS011;29247;50.944;5.382;2023-04-03T00:35:58;4.03;;;2.92;;
43650;SDS011;29247;50.944;5.382;2023-04-03T00:38:23;4.30;;;3.10;;
43650;SDS011;29247;50.944;5.382;2023-04-03T00:40:49;6.85;;;3.30;;
43650;SDS011;29247;50.944;5.382;2023-04-03T00:43:22;8.02;;;2.95;;
43650;SDS011;29247;50.944;5.382;2023-04-03T00:45:57;5.38;;;3.13;;
43650;SDS011;29247;50.944;5.382;2023-04-03T00:51:03;5.20;;;3.05;;
43650;SDS011;29247;50.944;5.382;2023-04-03T00:53:48;4.53;;;3.50;;
43650;SDS011;29247;50.944;5.382;2023-04-03T00:56:17;7.18;;;2.97;;
43650;SDS011;29247;50.944;5.382;2023-04-03T00:58:53;6.13;;;3.38;;
43650;SDS011;29247;50.944;5.382;2023-04-03T01:01:26;5.45;;;3.75;;
43650;SDS011;29247;50.944;5.382;2023-04-03T01:03:54;4.43;;;2.83;;
43650;SDS011;29247;50.944;5.382;2023-04-03T01:06:21;5.28;;;3.67;;
43650;SDS011;29247;50.944;5.382;2023-04-03T01:08:52;8.23;;;3.92;;
43650;SDS011;29247;50.944;5.382;2023-04-03T01:11:19;4.15;;;3.60;;
43650;SDS011;29247;50.944;5.382;2023-04-03T01:13:48;4.35;;;3.38;;
43650;SDS011;29247;50.944;5.382;2023-04-03T01:16:17;5.13;;;3.17;;
43650;SDS011;29247;50.944;5.382;2023-04-03T01:18:46;7.57;;;3.75;;
43650;SDS011;29247;50.944;5.382;2023-04-03T01:26:16;7.00;;;3.35;;
43650;SDS011;29247;50.944;5.382;2023-04-03T01:28:42;5.75;;;3.25;;
43650;SDS011;29247;50.944;5.382;2023-04-03T01:33:49;6.95;;;3.42;;
43650;SDS011;29247;50.944;5.382;2023-04-03T01:36:24;3.75;;;2.88;;
43650;SDS011;29247;50.944;5.382;2023-04-03T01:38:52;3.65;;;2.83;;
43650;SDS011;29247;50.944;5.382;2023-04-03T01:41:21;5.80;;;3.03;;
43650;SDS011;29247;50.944;5.382;2023-04-03T01:43:48;4.78;;;3.05;;
43650;SDS011;29247;50.944;5.382;2023-04-03T01:46:15;5.32;;;3.22;;
43650;SDS011;29247;50.944;5.382;2023-04-03T01:48:46;5.03;;;3.05;;
43650;SDS011;29247;50.944;5.382;2023-04-03T01:51:12;3.72;;;2.92;;
43650;SDS011;29247;50.944;5.382;2023-04-03T01:53:41;5.30;;;3.15;;
43650;SDS011;29247;50.944;5.382;2023-04-03T01:56:06;4.25;;;2.97;;
43650;SDS011;29247;50.944;5.382;2023-04-03T01:58:37;4.60;;;3.00;;
43650;SDS011;29247;50.944;5.382;2023-04-03T02:01:03;4.93;;;3.10;;
43650;SDS011;29247;50.944;5.382;2023-04-03T02:03:29;5.70;;;3.33;;
43650;SDS011;29247;50.944;5.382;2023-04-03T02:05:54;6.30;;;3.40;;
43650;SDS011;29247;50.944;5.382;2023-04-03T02:08:21;4.45;;;3.50;;
43650;SDS011;29247;50.944;5.382;2023-04-03T02:10:47;7.43;;;3.80;;
43650;SDS011;29247;50.944;5.382;2023-04-03T02:13:14;5.22;;;3.17;;
43650;SDS011;29247;50.944;5.382;2023-04-03T02:15:40;4.63;;;3.20;;
43650;SDS011;29247;50.944;5.382;2023-04-03T02:18:09;6.38;;;3.60;;
43650;SDS011;29247;50.944;5.382;2023-04-03T02:20:35;4.57;;;3.38;;
43650;SDS011;29247;50.944;5.382;2023-04-03T02:23:00;5.45;;;3.15;;
43650;SDS011;29247;50.944;5.382;2023-04-03T02:25:27;4.95;;;3.83;;
43650;SDS011;29247;50.944;5.382;2023-04-03T02:27:53;5.53;;;3.42;;
43650;SDS011;29247;50.944;5.382;2023-04-03T02:30:21;5.53;;;3.42;;
43650;SDS011;29247;50.944;5.382;2023-04-03T02:32:48;4.53;;;2.97;;
43650;SDS011;29247;50.944;5.382;2023-04-03T02:35:20;5.22;;;3.42;;
43650;SDS011;29247;50.944;5.382;2023-04-03T02:37:48;5.68;;;3.75;;
43650;SDS011;29247;50.944;5.382;2023-04-03T02:40:14;4.10;;;3.35;;
43650;SDS011;29247;50.944;5.382;2023-04-03T02:42:40;6.25;;;3.53;;
43650;SDS011;29247;50.944;5.382;2023-04-03T02:45:06;6.72;;;3.88;;
43650;SDS011;29247;50.944;5.382;2023-04-03T02:47:32;7.60;;;3.35;;
43650;SDS011;29247;50.944;5.382;2023-04-03T02:50:00;5.60;;;3.63;;
43650;SDS011;29247;50.944;5.382;2023-04-03T02:52:28;6.43;;;3.42;;
43650;SDS011;29247;50.944;5.382;2023-04-03T02:54:56;4.10;;;3.40;;
43650;SDS011;29247;50.944;5.382;2023-04-03T02:57:24;3.80;;;3.30;;
43650;SDS011;29247;50.944;5.382;2023-04-03T02:59:50;6.82;;;3.40;;
43650;SDS011;29247;50.944;5.382;2023-04-03T03:02:18;4.38;;;3.63;;
43650;SDS011;29247;50.944;5.382;2023-04-03T03:04:44;7.07;;;3.35;;
43650;SDS011;29247;50.944;5.382;2023-04-03T03:07:10;6.45;;;3.67;;
43650;SDS011;29247;50.944;5.382;2023-04-03T03:09:36;5.25;;;3.38;;
43650;SDS011;29247;50.944;5.382;2023-04-03T03:12:01;9.38;;;3.70;;
43650;SDS011;29247;50.944;5.382;2023-04-03T03:14:27;4.75;;;3.33;;
43650;SDS011;29247;50.944;5.382;2023-04-03T03:16:53;4.57;;;3.70;;
43650;SDS011;29247;50.944;5.382;2023-04-03T03:19:19;4.32;;;2.97;;
43650;SDS011;29247;50.944;5.382;2023-04-03T03:21:45;5.88;;;3.75;;
43650;SDS011;29247;50.944;5.382;2023-04-03T03:24:11;7.70;;;3.67;;
43650;SDS011;29247;50.944;5.382;2023-04-03T03:26:37;7.88;;;4.30;;
43650;SDS011;29247;50.944;5.382;2023-04-03T03:29:07;4.88;;;3.88;;
43650;SDS011;29247;50.944;5.382;2023-04-03T03:31:32;4.53;;;3.75;;
43650;SDS011;29247;50.944;5.382;2023-04-03T03:34:01;6.10;;;3.85;;
43650;SDS011;29247;50.944;5.382;2023-04-03T03:36:27;5.40;;;3.47;;
43650;SDS011;29247;50.944;5.382;2023-04-03T03:38:53;6.18;;;3.78;;
43650;SDS011;29247;50.944;5.382;2023-04-03T03:41:19;6.43;;;3.97;;
43650;SDS011;29247;50.944;5.382;2023-04-03T03:43:45;6.68;;;3.80;;
43650;SDS011;29247;50.944;5.382;2023-04-03T03:46:13;7.13;;;3.75;;
43650;SDS011;29247;50.944;5.382;2023-04-03T03:48:39;8.18;;;4.03;;
43650;SDS011;29247;50.944;5.382;2023-04-03T03:51:05;6.35;;;4.10;;
43650;SDS011;29247;50.944;5.382;2023-04-03T03:53:33;5.70;;;4.50;;
43650;SDS011;29247;50.944;5.382;2023-04-03T03:56:01;5.55;;;3.88;;
43650;SDS011;29247;50.944;5.382;2023-04-03T03:58:29;7.97;;;4.82;;
43650;SDS011;29247;50.944;5.382;2023-04-03T04:01:00;6.85;;;4.45;;
43650;SDS011;29247;50.944;5.382;2023-04-03T04:03:32;7.95;;;4.88;;
43650;SDS011;29247;50.944;5.382;2023-04-03T04:06:02;5.32;;;4.47;;
43650;SDS011;29247;50.944;5.382;2023-04-03T04:08:30;6.53;;;4.35;;
43650;SDS011;29247;50.944;5.382;2023-04-03T04:10:55;5.07;;;4.45;;
43650;SDS011;29247;50.944;5.382;2023-04-03T04:13:21;13.40;;;5.20;;
43650;SDS011;29247;50.944;5.382;2023-04-03T04:15:49;5.63;;;4.82;;
43650;SDS011;29247;50.944;5.382;2023-04-03T04:18:15;6.93;;;4.22;;
43650;SDS011;29247;50.944;5.382;2023-04-03T04:20:40;7.07;;;4.32;;
43650;SDS011;29247;50.944;5.382;2023-04-03T04:23:15;8.15;;;4.07;;
43650;SDS011;29247;50.944;5.382;2023-04-03T04:25:47;6.10;;;3.90;;
43650;SDS011;29247;50.944;5.382;2023-04-03T04:28:13;5.43;;;4.57;;
43650;SDS011;29247;50.944;5.382;2023-04-03T04:30:40;5.30;;;4.22;;
43650;SDS011;29247;50.944;5.382;2023-04-03T04:33:09;7.63;;;5.03;;
43650;SDS011;29247;50.944;5.382;2023-04-03T04:35:37;8.18;;;5.57;;
43650;SDS011;29247;50.944;5.382;2023-04-03T04:38:03;6.13;;;5.50;;
43650;SDS011;29247;50.944;5.382;2023-04-03T04:40:33;8.07;;;5.15;;
43650;SDS011;29247;50.944;5.382;2023-04-03T04:42:59;6.45;;;5.15;;
43650;SDS011;29247;50.944;5.382;2023-04-03T04:45:25;7.75;;;5.68;;
43650;SDS011;29247;50.944;5.382;2023-04-03T04:47:51;10.38;;;6.35;;
43650;SDS011;29247;50.944;5.382;2023-04-03T04:50:17;11.18;;;6.57;;
43650;SDS011;29247;50.944;5.382;2023-04-03T04:52:43;10.60;;;6.57;;
43650;SDS011;29247;50.944;5.382;2023-04-03T04:55:09;10.32;;;6.95;;
43650;SDS011;29247;50.944;5.382;2023-04-03T04:57:37;10.07;;;6.72;;
43650;SDS011;29247;50.944;5.382;2023-04-03T05:00:06;9.68;;;6.57;;
43650;SDS011;29247;50.944;5.382;2023-04-03T05:02:32;15.70;;;8.77;;
43650;SDS011;29247;50.944;5.382;2023-04-03T05:05:00;13.77;;;7.93;;
43650;SDS011;29247;50.944;5.382;2023-04-03T05:07:26;10.73;;;7.85;;
43650;SDS011;29247;50.944;5.382;2023-04-03T05:09:51;12.68;;;7.50;;
43650;SDS011;29247;50.944;5.382;2023-04-03T05:12:19;10.77;;;7.53;;
43650;SDS011;29247;50.944;5.382;2023-04-03T05:14:45;13.27;;;8.18;;
43650;SDS011;29247;50.944;5.382;2023-04-03T05:17:13;10.95;;;7.30;;
43650;SDS011;29247;50.944;5.382;2023-04-03T05:19:38;10.10;;;7.50;;
43650;SDS011;29247;50.944;5.382;2023-04-03T05:22:04;10.20;;;7.07;;
43650;SDS011;29247;50.944;5.382;2023-04-03T05:24:30;11.13;;;7.28;;
43650;SDS011;29247;50.944;5.382;2023-04-03T05:26:58;10.85;;;7.40;;
43650;SDS011;29247;50.944;5.382;2023-04-03T05:29:26;14.23;;;7.78;;
43650;SDS011;29247;50.944;5.382;2023-04-03T05:31:51;11.68;;;7.15;;
43650;SDS011;29247;50.944;5.382;2023-04-03T05:34:17;10.00;;;7.25;;
43650;SDS011;29247;50.944;5.382;2023-04-03T05:36:43;14.43;;;7.70;;
43650;SDS011;29247;50.944;5.382;2023-04-03T05:39:09;17.58;;;9.23;;
43650;SDS011;29247;50.944;5.382;2023-04-03T05:41:36;11.32;;;7.38;;
43650;SDS011;29247;50.944;5.382;2023-04-03T05:44:04;13.13;;;8.38;;
43650;SDS011;29247;50.944;5.382;2023-04-03T05:46:30;14.90;;;8.68;;
43650;SDS011;29247;50.944;5.382;2023-04-03T05:48:57;16.98;;;7.57;;
43650;SDS011;29247;50.944;5.382;2023-04-03T05:51:23;12.05;;;6.75;;
43650;SDS011;29247;50.944;5.382;2023-04-03T05:54:16;9.65;;;6.80;;
43650;SDS011;29247;50.944;5.382;2023-04-03T05:56:45;12.98;;;7.20;;
43650;SDS011;29247;50.944;5.382;2023-04-03T05:59:13;12.60;;;7.88;;
43650;SDS011;29247;50.944;5.382;2023-04-03T06:01:38;8.00;;;6.15;;
43650;SDS011;29247;50.944;5.382;2023-04-03T06:04:06;10.05;;;7.28;;
43650;SDS011;29247;50.944;5.382;2023-04-03T06:06:53;9.32;;;6.30;;
43650;SDS011;29247;50.944;5.382;2023-04-03T06:09:22;8.98;;;5.93;;
43650;SDS011;29247;50.944;5.382;2023-04-03T06:11:49;11.15;;;6.07;;
43650;SDS011;29247;50.944;5.382;2023-04-03T06:14:15;10.32;;;6.28;;
43650;SDS011;29247;50.944;5.382;2023-04-03T06:16:45;10.52;;;5.95;;
43650;SDS011;29247;50.944;5.382;2023-04-03T06:19:11;8.15;;;5.47;;
43650;SDS011;29247;50.944;5.382;2023-04-03T06:21:40;16.58;;;6.30;;
43650;SDS011;29247;50.944;5.382;2023-04-03T06:24:06;16.38;;;6.85;;
43650;SDS011;29247;50.944;5.382;2023-04-03T06:26:35;13.00;;;7.35;;
43650;SDS011;29247;50.944;5.382;2023-04-03T06:29:00;10.73;;;5.93;;
43650;SDS011;29247;50.944;5.382;2023-04-03T06:31:29;10.35;;;5.80;;
43650;SDS011;29247;50.944;5.382;2023-04-03T06:33:59;10.18;;;5.80;;
43650;SDS011;29247;50.944;5.382;2023-04-03T06:36:28;8.90;;;5.45;;
43650;SDS011;29247;50.944;5.382;2023-04-03T06:38:59;9.40;;;5.57;;
43650;SDS011;29247;50.944;5.382;2023-04-03T06:41:28;7.55;;;5.05;;
43650;SDS011;29247;50.944;5.382;2023-04-03T06:43:54;7.53;;;4.68;;
43650;SDS011;29247;50.944;5.382;2023-04-03T06:46:24;10.63;;;4.57;;
43650;SDS011;29247;50.944;5.382;2023-04-03T06:48:53;10.05;;;4.78;;
43650;SDS011;29247;50.944;5.382;2023-04-03T06:51:23;9.57;;;4.60;;
43650;SDS011;29247;50.944;5.382;2023-04-03T06:53:54;8.95;;;4.68;;
43650;SDS011;29247;50.944;5.382;2023-04-03T06:56:21;10.55;;;6.07;;
43650;SDS011;29247;50.944;5.382;2023-04-03T06:58:47;8.35;;;4.57;;
43650;SDS011;29247;50.944;5.382;2023-04-03T07:01:15;6.60;;;4.13;;
43650;SDS011;29247;50.944;5.382;2023-04-03T07:03:46;7.40;;;3.88;;
43650;SDS011;29247;50.944;5.382;2023-04-03T07:06:15;7.88;;;4.25;;
43650;SDS011;29247;50.944;5.382;2023-04-03T07:08:45;7.22;;;4.03;;
43650;SDS011;29247;50.944;5.382;2023-04-03T07:11:14;6.80;;;4.20;;
43650;SDS011;29247;50.944;5.382;2023-04-03T07:13:40;5.63;;;3.58;;
43650;SDS011;29247;50.944;5.382;2023-04-03T07:16:08;10.73;;;4.55;;
43650;SDS011;29247;50.944;5.382;2023-04-03T07:18:34;9.80;;;3.72;;
43650;SDS011;29247;50.944;5.382;2023-04-03T07:21:01;10.82;;;4.20;;
43650;SDS011;29247;50.944;5.382;2023-04-03T07:23:30;4.38;;;3.10;;
43650;SDS011;29247;50.944;5.382;2023-04-03T07:25:58;7.85;;;3.53;;
43650;SDS011;29247;50.944;5.382;2023-04-03T07:28:24;7.00;;;2.97;;
43650;SDS011;29247;50.944;5.382;2023-04-03T07:31:05;7.10;;;3.45;;
43650;SDS011;29247;50.944;5.382;2023-04-03T07:33:38;7.38;;;3.28;;
43650;SDS011;29247;50.944;5.382;2023-04-03T07:36:06;7.25;;;3.63;;
43650;SDS011;29247;50.944;5.382;2023-04-03T07:38:34;6.22;;;3.20;;
43650;SDS011;29247;50.944;5.382;2023-04-03T07:41:02;4.95;;;3.63;;
43650;SDS011;29247;50.944;5.382;2023-04-03T07:43:29;6.60;;;3.45;;
43650;SDS011;29247;50.944;5.382;2023-04-03T07:45:54;5.15;;;2.88;;
43650;SDS011;29247;50.944;5.382;2023-04-03T07:48:24;5.40;;;3.15;;
43650;SDS011;29247;50.944;5.382;2023-04-03T07:50:51;3.63;;;2.43;;
43650;SDS011;29247;50.944;5.382;2023-04-03T07:53:17;9.60;;;3.65;;
43650;SDS011;29247;50.944;5.382;2023-04-03T07:55:46;5.53;;;3.15;;
43650;SDS011;29247;50.944;5.382;2023-04-03T07:58:16;3.65;;;2.45;;
43650;SDS011;29247;50.944;5.382;2023-04-03T08:00:46;5.07;;;2.95;;
43650;SDS011;29247;50.944;5.382;2023-04-03T08:03:15;6.32;;;3.10;;
43650;SDS011;29247;50.944;5.382;2023-04-03T08:05:44;9.27;;;2.85;;
43650;SDS011;29247;50.944;5.382;2023-04-03T08:08:12;5.40;;;2.50;;
43650;SDS011;29247;50.944;5.382;2023-04-03T08:10:39;6.93;;;2.80;;
43650;SDS011;29247;50.944;5.382;2023-04-03T08:13:08;7.75;;;2.75;;
43650;SDS011;29247;50.944;5.382;2023-04-03T08:15:34;7.65;;;2.17;;
43650;SDS011;29247;50.944;5.382;2023-04-03T08:18:03;5.22;;;1.67;;
43650;SDS011;29247;50.944;5.382;2023-04-03T08:20:29;5.07;;;1.92;;
43650;SDS011;29247;50.944;5.382;2023-04-03T08:22:55;5.22;;;2.38;;
43650;SDS011;29247;50.944;5.382;2023-04-03T08:25:21;5.32;;;2.40;;
43650;SDS011;29247;50.944;5.382;2023-04-03T08:27:47;4.03;;;2.28;;
43650;SDS011;29247;50.944;5.382;2023-04-03T08:32:43;5.20;;;1.70;;
43650;SDS011;29247;50.944;5.382;2023-04-03T08:35:09;5.63;;;1.92;;
43650;SDS011;29247;50.944;5.382;2023-04-03T08:37:36;5.13;;;1.75;;
43650;SDS011;29247;50.944;5.382;2023-04-03T08:40:04;4.43;;;1.98;;
43650;SDS011;29247;50.944;5.382;2023-04-03T08:45:10;3.05;;;1.70;;
43650;SDS011;29247;50.944;5.382;2023-04-03T08:47:46;6.38;;;2.25;;
43650;SDS011;29247;50.944;5.382;2023-04-03T08:50:19;4.30;;;1.65;;
43650;SDS011;29247;50.944;5.382;2023-04-03T08:52:48;4.35;;;1.88;;
43650;SDS011;29247;50.944;5.382;2023-04-03T08:55:26;4.00;;;1.92;;
43650;SDS011;29247;50.944;5.382;2023-04-03T08:58:09;2.92;;;1.90;;
43650;SDS011;29247;50.944;5.382;2023-04-03T09:00:47;5.63;;;1.33;;
43650;SDS011;29247;50.944;5.382;2023-04-03T09:03:20;2.20;;;1.52;;
43650;SDS011;29247;50.944;5.382;2023-04-03T09:10:50;3.83;;;1.52;;
43650;SDS011;29247;50.944;5.382;2023-04-03T09:13:31;5.68;;;1.60;;
43650;SDS011;29247;50.944;5.382;2023-04-03T09:16:15;4.57;;;1.60;;
43650;SDS011;29247;50.944;5.382;2023-04-03T09:18:57;3.58;;;1.67;;
43650;SDS011;29247;50.944;5.382;2023-04-03T09:21:46;5.18;;;1.50;;
43650;SDS011;29247;50.944;5.382;2023-04-03T09:24:13;4.82;;;1.42;;
43650;SDS011;29247;50.944;5.382;2023-04-03T09:26:54;5.38;;;1.77;;
43650;SDS011;29247;50.944;5.382;2023-04-03T09:29:28;4.97;;;1.75;;
43650;SDS011;29247;50.944;5.382;2023-04-03T09:31:58;6.32;;;1.20;;
43650;SDS011;29247;50.944;5.382;2023-04-03T09:34:36;4.32;;;1.17;;
43650;SDS011;29247;50.944;5.382;2023-04-03T09:37:02;4.35;;;1.30;;
43650;SDS011;29247;50.944;5.382;2023-04-03T09:39:31;6.47;;;1.13;;
43650;SDS011;29247;50.944;5.382;2023-04-03T09:42:18;4.13;;;1.42;;
43650;SDS011;29247;50.944;5.382;2023-04-03T09:47:48;3.78;;;1.60;;
43650;SDS011;29247;50.944;5.382;2023-04-03T09:50:29;3.25;;;1.50;;
43650;SDS011;29247;50.944;5.382;2023-04-03T09:52:55;3.80;;;1.45;;
43650;SDS011;29247;50.944;5.382;2023-04-03T09:55:25;4.28;;;1.60;;
43650;SDS011;29247;50.944;5.382;2023-04-03T09:57:59;3.45;;;1.48;;
43650;SDS011;29247;50.944;5.382;2023-04-03T10:00:28;1.48;;;1.35;;
43650;SDS011;29247;50.944;5.382;2023-04-03T10:02:56;4.57;;;1.85;;
43650;SDS011;29247;50.944;5.382;2023-04-03T10:05:26;4.38;;;1.38;;
43650;SDS011;29247;50.944;5.382;2023-04-03T10:10:43;3.78;;;1.40;;
43650;SDS011;29247;50.944;5.382;2023-04-03T10:13:16;2.45;;;1.05;;
43650;SDS011;29247;50.944;5.382;2023-04-03T10:15:55;2.72;;;1.10;;
43650;SDS011;29247;50.944;5.382;2023-04-03T10:18:37;2.05;;;0.82;;
43650;SDS011;29247;50.944;5.382;2023-04-03T10:21:10;1.88;;;0.80;;
43650;SDS011;29247;50.944;5.382;2023-04-03T10:29:39;2.90;;;0.70;;
43650;SDS011;29247;50.944;5.382;2023-04-03T10:34:47;1.48;;;0.80;;
43650;SDS011;29247;50.944;5.382;2023-04-03T10:37:29;3.63;;;1.20;;
43650;SDS011;29247;50.944;5.382;2023-04-03T10:43:33;0.93;;;0.70;;
43650;SDS011;29247;50.944;5.382;2023-04-03T10:48:36;1.63;;;0.82;;
43650;SDS011;29247;50.944;5.382;2023-04-03T10:51:41;1.50;;;0.80;;
43650;SDS011;29247;50.944;5.382;2023-04-03T10:54:25;2.10;;;0.60;;
43650;SDS011;29247;50.944;5.382;2023-04-03T10:57:01;0.93;;;0.70;;
43650;SDS011;29247;50.944;5.382;2023-04-03T11:04:50;1.10;;;0.73;;
43650;SDS011;29247;50.944;5.382;2023-04-03T11:07:24;2.25;;;0.93;;
43650;SDS011;29247;50.944;5.382;2023-04-03T11:09:54;3.17;;;0.90;;
43650;SDS011;29247;50.944;5.382;2023-04-03T11:14:58;1.17;;;0.70;;
43650;SDS011;29247;50.944;5.382;2023-04-03T11:17:33;2.15;;;0.85;;
43650;SDS011;29247;50.944;5.382;2023-04-03T11:20:20;4.93;;;1.02;;
43650;SDS011;29247;50.944;5.382;2023-04-03T11:22:53;2.70;;;0.80;;
43650;SDS011;29247;50.944;5.382;2023-04-03T11:25:26;1.17;;;0.70;;
43650;SDS011;29247;50.944;5.382;2023-04-03T11:28:01;3.03;;;0.82;;
43650;SDS011;29247;50.944;5.382;2023-04-03T11:30:38;2.90;;;0.90;;
43650;SDS011;29247;50.944;5.382;2023-04-03T11:35:52;2.05;;;0.82;;
43650;SDS011;29247;50.944;5.382;2023-04-03T11:38:38;2.47;;;0.90;;
43650;SDS011;29247;50.944;5.382;2023-04-03T11:41:08;2.92;;;0.88;;
43650;SDS011;29247;50.944;5.382;2023-04-03T11:43:57;1.00;;;0.87;;
43650;SDS011;29247;50.944;5.382;2023-04-03T11:55:46;1.20;;;0.80;;
43650;SDS011;29247;50.944;5.382;2023-04-03T11:58:16;1.02;;;0.70;;
43650;SDS011;29247;50.944;5.382;2023-04-03T12:08:44;1.92;;;1.00;;
43650;SDS011;29247;50.944;5.382;2023-04-03T12:27:09;1.70;;;0.88;;
43650;SDS011;29247;50.944;5.382;2023-04-03T12:29:52;2.95;;;1.10;;
43650;SDS011;29247;50.944;5.382;2023-04-03T12:35:17;2.60;;;1.30;;
43650;SDS011;29247;50.944;5.382;2023-04-03T12:46:23;1.95;;;0.70;;
43650;SDS011;29247;50.944;5.382;2023-04-03T12:48:58;1.90;;;0.75;;
43650;SDS011;29247;50.944;5.382;2023-04-03T12:51:31;2.15;;;1.00;;
43650;SDS011;29247;50.944;5.382;2023-04-03T12:54:36;2.88;;;1.10;;
43650;SDS011;29247;50.944;5.382;2023-04-03T12:57:15;3.20;;;1.05;;
43650;SDS011;29247;50.944;5.382;2023-04-03T12:59:44;2.20;;;1.02;;
43650;SDS011;29247;50.944;5.382;2023-04-03T13:07:30;1.73;;;0.98;;
43650;SDS011;29247;50.944;5.382;2023-04-03T13:12:47;1.88;;;1.00;;
43650;SDS011;29247;50.944;5.382;2023-04-03T13:17:47;2.17;;;1.40;;
43650;SDS011;29247;50.944;5.382;2023-04-03T13:25:40;3.85;;;1.42;;
43650;SDS011;29247;50.944;5.382;2023-04-03T13:28:09;2.45;;;1.00;;
43650;SDS011;29247;50.944;5.382;2023-04-03T13:30:40;3.55;;;1.02;;
43650;SDS011;29247;50.944;5.382;2023-04-03T13:33:25;1.75;;;1.10;;
43650;SDS011;29247;50.944;5.382;2023-04-03T13:35:59;5.57;;;1.17;;
43650;SDS011;29247;50.944;5.382;2023-04-03T13:38:35;2.83;;;1.17;;
43650;SDS011;29247;50.944;5.382;2023-04-03T13:41:03;3.28;;;1.30;;
43650;SDS011;29247;50.944;5.382;2023-04-03T13:43:49;2.70;;;1.20;;
43650;SDS011;29247;50.944;5.382;2023-04-03T13:48:42;2.00;;;1.13;;
43650;SDS011;29247;50.944;5.382;2023-04-03T13:53:44;3.30;;;1.13;;
43650;SDS011;29247;50.944;5.382;2023-04-03T13:58:52;4.28;;;1.55;;
43650;SDS011;29247;50.944;5.382;2023-04-03T14:01:46;2.78;;;1.00;;
43650;SDS011;29247;50.944;5.382;2023-04-03T14:06:53;4.45;;;1.30;;
43650;SDS011;29247;50.944;5.382;2023-04-03T14:09:21;4.07;;;1.20;;
43650;SDS011;29247;50.944;5.382;2023-04-03T14:11:51;2.75;;;1.40;;
43650;SDS011;29247;50.944;5.382;2023-04-03T14:14:23;1.50;;;1.30;;
43650;SDS011;29247;50.944;5.382;2023-04-03T14:16:56;2.83;;;1.27;;
43650;SDS011;29247;50.944;5.382;2023-04-03T14:19:31;2.85;;;1.40;;
43650;SDS011;29247;50.944;5.382;2023-04-03T14:21:59;2.53;;;1.00;;
43650;SDS011;29247;50.944;5.382;2023-04-03T14:24:30;1.67;;;1.15;;
43650;SDS011;29247;50.944;5.382;2023-04-03T14:26:57;3.80;;;1.40;;
43650;SDS011;29247;50.944;5.382;2023-04-03T14:29:25;3.88;;;1.20;;
43650;SDS011;29247;50.944;5.382;2023-04-03T14:31:51;1.55;;;1.05;;
43650;SDS011;29247;50.944;5.382;2023-04-03T14:34:17;1.70;;;1.00;;
43650;SDS011;29247;50.944;5.382;2023-04-03T14:36:43;2.13;;;1.08;;
43650;SDS011;29247;50.944;5.382;2023-04-03T14:39:16;2.97;;;1.10;;
43650;SDS011;29247;50.944;5.382;2023-04-03T14:41:43;2.92;;;1.00;;
43650;SDS011;29247;50.944;5.382;2023-04-03T14:44:10;2.28;;;1.23;;
43650;SDS011;29247;50.944;5.382;2023-04-03T14:46:39;1.98;;;1.10;;
43650;SDS011;29247;50.944;5.382;2023-04-03T14:49:18;3.47;;;1.20;;
43650;SDS011;29247;50.944;5.382;2023-04-03T14:51:48;3.50;;;1.70;;
43650;SDS011;29247;50.944;5.382;2023-04-03T14:54:19;2.55;;;1.20;;
43650;SDS011;29247;50.944;5.382;2023-04-03T14:56:50;1.67;;;1.25;;
43650;SDS011;29247;50.944;5.382;2023-04-03T14:59:16;2.15;;;1.38;;
43650;SDS011;29247;50.944;5.382;2023-04-03T15:01:47;2.65;;;1.30;;
43650;SDS011;29247;50.944;5.382;2023-04-03T15:04:14;1.30;;;1.00;;
43650;SDS011;29247;50.944;5.382;2023-04-03T15:09:21;2.28;;;1.13;;
43650;SDS011;29247;50.944;5.382;2023-04-03T15:11:51;1.65;;;1.17;;
43650;SDS011;29247;50.944;5.382;2023-04-03T15:14:18;2.40;;;1.10;;
43650;SDS011;29247;50.944;5.382;2023-04-03T15:16:44;3.20;;;1.25;;
43650;SDS011;29247;50.944;5.382;2023-04-03T15:19:15;4.20;;;1.00;;
43650;SDS011;29247;50.944;5.382;2023-04-03T15:24:08;1.40;;;0.77;;
43650;SDS011;29247;50.944;5.382;2023-04-03T15:26:35;1.15;;;0.90;;
43650;SDS011;29247;50.944;5.382;2023-04-03T15:29:01;3.97;;;0.90;;
43650;SDS011;29247;50.944;5.382;2023-04-03T15:31:28;4.68;;;1.00;;
43650;SDS011;29247;50.944;5.382;2023-04-03T15:33:55;2.42;;;1.10;;
43650;SDS011;29247;50.944;5.382;2023-04-03T15:36:26;2.05;;;0.90;;
43650;SDS011;29247;50.944;5.382;2023-04-03T15:38:52;2.60;;;1.00;;
43650;SDS011;29247;50.944;5.382;2023-04-03T15:41:21;1.95;;;1.05;;
43650;SDS011;29247;50.944;5.382;2023-04-03T15:43:46;1.95;;;0.93;;
43650;SDS011;29247;50.944;5.382;2023-04-03T15:46:12;3.95;;;1.45;;
43650;SDS011;29247;50.944;5.382;2023-04-03T15:48:38;1.77;;;1.05;;
43650;SDS011;29247;50.944;5.382;2023-04-03T15:51:09;4.95;;;1.77;;
43650;SDS011;29247;50.944;5.382;2023-04-03T15:53:35;6.40;;;1.20;;
43650;SDS011;29247;50.944;5.382;2023-04-03T15:56:01;1.23;;;1.10;;
43650;SDS011;29247;50.944;5.382;2023-04-03T15:58:26;3.65;;;1.42;;
43650;SDS011;29247;50.944;5.382;2023-04-03T16:00:54;2.63;;;0.90;;
43650;SDS011;29247;50.944;5.382;2023-04-03T16:03:20;1.45;;;1.00;;
43650;SDS011;29247;50.944;5.382;2023-04-03T16:05:47;5.10;;;1.23;;
43650;SDS011;29247;50.944;5.382;2023-04-03T16:08:14;1.75;;;0.73;;
43650;SDS011;29247;50.944;5.382;2023-04-03T16:10:41;2.38;;;1.05;;
43650;SDS011;29247;50.944;5.382;2023-04-03T16:13:07;6.45;;;1.35;;
43650;SDS011;29247;50.944;5.382;2023-04-03T16:15:32;3.30;;;1.55;;
43650;SDS011;29247;50.944;5.382;2023-04-03T16:18:02;2.40;;;1.27;;
43650;SDS011;29247;50.944;5.382;2023-04-03T16:20:31;1.35;;;0.90;;
43650;SDS011;29247;50.944;5.382;2023-04-03T16:22:57;2.83;;;1.20;;
43650;SDS011;29247;50.944;5.382;2023-04-03T16:25:26;2.57;;;1.00;;
43650;SDS011;29247;50.944;5.382;2023-04-03T16:27:58;2.35;;;0.95;;
43650;SDS011;29247;50.944;5.382;2023-04-03T16:30:24;3.08;;;1.10;;
43650;SDS011;29247;50.944;5.382;2023-04-03T16:32:52;2.28;;;1.10;;
43650;SDS011;29247;50.944;5.382;2023-04-03T16:35:23;3.35;;;1.20;;
43650;SDS011;29247;50.944;5.382;2023-04-03T16:37:49;3.15;;;1.10;;
43650;SDS011;29247;50.944;5.382;2023-04-03T16:40:15;1.98;;;0.90;;
43650;SDS011;29247;50.944;5.382;2023-04-03T16:42:41;2.72;;;1.08;;
43650;SDS011;29247;50.944;5.382;2023-04-03T16:45:07;1.88;;;1.00;;
43650;SDS011;29247;50.944;5.382;2023-04-03T16:47:34;3.63;;;1.27;;
43650;SDS011;29247;50.944;5.382;2023-04-03T16:50:02;0.93;;;0.82;;
43650;SDS011;29247;50.944;5.382;2023-04-03T16:52:31;1.65;;;0.90;;
43650;SDS011;29247;50.944;5.382;2023-04-03T16:54:57;1.80;;;1.00;;
43650;SDS011;29247;50.944;5.382;2023-04-03T16:57:26;2.30;;;0.80;;
43650;SDS011;29247;50.944;5.382;2023-04-03T16:59:52;1.33;;;1.10;;
43650;SDS011;29247;50.944;5.382;2023-04-03T17:02:21;3.08;;;0.90;;
43650;SDS011;29247;50.944;5.382;2023-04-03T17:04:49;3.70;;;1.23;;
43650;SDS011;29247;50.944;5.382;2023-04-03T17:07:19;3.63;;;1.30;;